Altamont, Utah
Current Conditions -  °F | °C
As of 8:53 PM on Sunday 23 Nov 2014 (Local Time) from KVEL Reporting Station
Clear Clear  
Wind Chill: -6°   Ceiling: Unl
Heat Index: -2°   Visibility: 10mi
Dew Point: -11°   Wind: 7mph
Humidity: 51%   Direction: 70°ENE
Pressure: 30.1"   Gusts: NA
Location:  40.36°N, 110.29°W
Report Text: KVEL 240353Z AUTO 07006KT 10SM CLR M02/M11 A3010 RMK AO2 SLP214 T10221111
Loading
Personal Weather Stations






























Interactive Weather Map New forecast layout! Learn more

10-Day Weather Forecast

Advertisements
Track Severe Weather on mobile